sensor_id;sensor_type;location;lat;lon;timestamp;P1;durP1;ratioP1;P2;durP2;ratioP2
49828;SDS011;35723;51.194;5.112;2023-06-04T00:01:03;7.45;;;2.78;;
49828;SDS011;35723;51.194;5.112;2023-06-04T00:03:29;7.80;;;2.63;;
49828;SDS011;35723;51.194;5.112;2023-06-04T00:05:55;8.48;;;2.70;;
49828;SDS011;35723;51.194;5.112;2023-06-04T00:08:21;7.78;;;2.40;;
49828;SDS011;35723;51.194;5.112;2023-06-04T00:10:47;6.93;;;2.42;;
49828;SDS011;35723;51.194;5.112;2023-06-04T00:13:12;6.75;;;2.53;;
49828;SDS011;35723;51.194;5.112;2023-06-04T00:15:38;8.85;;;2.38;;
49828;SDS011;35723;51.194;5.112;2023-06-04T00:18:04;5.78;;;2.28;;
49828;SDS011;35723;51.194;5.112;2023-06-04T00:20:30;7.25;;;2.35;;
49828;SDS011;35723;51.194;5.112;2023-06-04T00:22:55;8.75;;;2.75;;
49828;SDS011;35723;51.194;5.112;2023-06-04T00:25:21;6.25;;;2.25;;
49828;SDS011;35723;51.194;5.112;2023-06-04T00:27:47;6.80;;;2.40;;
49828;SDS011;35723;51.194;5.112;2023-06-04T00:30:13;6.13;;;2.50;;
49828;SDS011;35723;51.194;5.112;2023-06-04T00:32:39;7.95;;;2.50;;
49828;SDS011;35723;51.194;5.112;2023-06-04T00:35:05;6.05;;;2.80;;
49828;SDS011;35723;51.194;5.112;2023-06-04T00:37:31;7.20;;;2.63;;
49828;SDS011;35723;51.194;5.112;2023-06-04T00:39:57;9.10;;;2.75;;
49828;SDS011;35723;51.194;5.112;2023-06-04T00:42:24;5.43;;;2.80;;
49828;SDS011;35723;51.194;5.112;2023-06-04T00:44:49;8.52;;;3.10;;
49828;SDS011;35723;51.194;5.112;2023-06-04T00:47:16;6.97;;;2.80;;
49828;SDS011;35723;51.194;5.112;2023-06-04T00:49:43;7.75;;;3.00;;
49828;SDS011;35723;51.194;5.112;2023-06-04T00:52:09;11.82;;;3.10;;
49828;SDS011;35723;51.194;5.112;2023-06-04T00:54:35;6.78;;;2.80;;
49828;SDS011;35723;51.194;5.112;2023-06-04T00:57:02;7.30;;;2.97;;
49828;SDS011;35723;51.194;5.112;2023-06-04T00:59:28;14.07;;;3.55;;
49828;SDS011;35723;51.194;5.112;2023-06-04T01:07:03;8.30;;;3.33;;
49828;SDS011;35723;51.194;5.112;2023-06-04T01:09:32;10.43;;;3.40;;
49828;SDS011;35723;51.194;5.112;2023-06-04T01:11:58;7.97;;;3.08;;
49828;SDS011;35723;51.194;5.112;2023-06-04T01:14:24;9.68;;;3.40;;
49828;SDS011;35723;51.194;5.112;2023-06-04T01:16:59;9.60;;;3.25;;
49828;SDS011;35723;51.194;5.112;2023-06-04T01:24:53;8.48;;;3.40;;
49828;SDS011;35723;51.194;5.112;2023-06-04T01:27:24;8.77;;;2.97;;
49828;SDS011;35723;51.194;5.112;2023-06-04T01:29:50;7.93;;;3.10;;
49828;SDS011;35723;51.194;5.112;2023-06-04T01:32:16;9.15;;;3.22;;
49828;SDS011;35723;51.194;5.112;2023-06-04T01:34:43;8.30;;;2.70;;
49828;SDS011;35723;51.194;5.112;2023-06-04T01:37:10;6.05;;;2.88;;
49828;SDS011;35723;51.194;5.112;2023-06-04T01:39:36;6.88;;;3.00;;
49828;SDS011;35723;51.194;5.112;2023-06-04T01:42:02;7.32;;;2.90;;
49828;SDS011;35723;51.194;5.112;2023-06-04T01:44:28;7.18;;;2.97;;
49828;SDS011;35723;51.194;5.112;2023-06-04T01:46:53;9.63;;;3.15;;
49828;SDS011;35723;51.194;5.112;2023-06-04T01:49:19;6.85;;;3.10;;
49828;SDS011;35723;51.194;5.112;2023-06-04T01:51:45;10.40;;;2.90;;
49828;SDS011;35723;51.194;5.112;2023-06-04T01:54:10;7.32;;;2.92;;
49828;SDS011;35723;51.194;5.112;2023-06-04T01:56:36;5.88;;;2.85;;
49828;SDS011;35723;51.194;5.112;2023-06-04T01:59:02;13.00;;;3.20;;
49828;SDS011;35723;51.194;5.112;2023-06-04T02:01:27;9.23;;;3.20;;
49828;SDS011;35723;51.194;5.112;2023-06-04T02:03:53;11.13;;;3.08;;
49828;SDS011;35723;51.194;5.112;2023-06-04T02:06:18;13.43;;;3.20;;
49828;SDS011;35723;51.194;5.112;2023-06-04T02:08:44;8.95;;;3.13;;
49828;SDS011;35723;51.194;5.112;2023-06-04T02:11:10;9.02;;;2.90;;
49828;SDS011;35723;51.194;5.112;2023-06-04T02:13:36;8.90;;;2.92;;
49828;SDS011;35723;51.194;5.112;2023-06-04T02:16:02;7.47;;;3.08;;
49828;SDS011;35723;51.194;5.112;2023-06-04T02:18:28;9.32;;;3.08;;
49828;SDS011;35723;51.194;5.112;2023-06-04T02:20:54;8.82;;;3.20;;
49828;SDS011;35723;51.194;5.112;2023-06-04T02:23:22;6.22;;;3.00;;
49828;SDS011;35723;51.194;5.112;2023-06-04T02:25:48;9.63;;;3.10;;
49828;SDS011;35723;51.194;5.112;2023-06-04T02:28:14;8.45;;;3.00;;
49828;SDS011;35723;51.194;5.112;2023-06-04T02:30:40;9.18;;;3.17;;
49828;SDS011;35723;51.194;5.112;2023-06-04T02:33:07;9.00;;;3.28;;
49828;SDS011;35723;51.194;5.112;2023-06-04T02:35:34;9.13;;;3.17;;
49828;SDS011;35723;51.194;5.112;2023-06-04T02:38:01;8.23;;;3.00;;
49828;SDS011;35723;51.194;5.112;2023-06-04T02:40:27;10.55;;;3.10;;
49828;SDS011;35723;51.194;5.112;2023-06-04T02:42:53;5.95;;;2.83;;
49828;SDS011;35723;51.194;5.112;2023-06-04T02:45:20;6.78;;;3.13;;
49828;SDS011;35723;51.194;5.112;2023-06-04T02:47:46;7.35;;;3.30;;
49828;SDS011;35723;51.194;5.112;2023-06-04T02:50:12;7.78;;;2.70;;
49828;SDS011;35723;51.194;5.112;2023-06-04T02:52:38;7.57;;;2.90;;
49828;SDS011;35723;51.194;5.112;2023-06-04T02:55:05;7.88;;;2.80;;
49828;SDS011;35723;51.194;5.112;2023-06-04T02:57:32;9.32;;;3.03;;
49828;SDS011;35723;51.194;5.112;2023-06-04T02:59:58;8.95;;;2.90;;
49828;SDS011;35723;51.194;5.112;2023-06-04T03:02:24;8.35;;;3.13;;
49828;SDS011;35723;51.194;5.112;2023-06-04T03:04:50;6.80;;;2.78;;
49828;SDS011;35723;51.194;5.112;2023-06-04T03:07:17;4.75;;;2.70;;
49828;SDS011;35723;51.194;5.112;2023-06-04T03:09:54;6.40;;;2.60;;
49828;SDS011;35723;51.194;5.112;2023-06-04T03:12:21;11.73;;;3.05;;
49828;SDS011;35723;51.194;5.112;2023-06-04T03:14:46;8.18;;;3.17;;
49828;SDS011;35723;51.194;5.112;2023-06-04T03:17:12;8.85;;;2.90;;
49828;SDS011;35723;51.194;5.112;2023-06-04T03:19:38;9.15;;;3.22;;
49828;SDS011;35723;51.194;5.112;2023-06-04T03:22:05;9.13;;;3.30;;
49828;SDS011;35723;51.194;5.112;2023-06-04T03:24:35;12.20;;;3.25;;
49828;SDS011;35723;51.194;5.112;2023-06-04T03:27:02;5.82;;;3.00;;
49828;SDS011;35723;51.194;5.112;2023-06-04T03:29:29;7.75;;;2.83;;
49828;SDS011;35723;51.194;5.112;2023-06-04T03:31:58;11.68;;;3.40;;
49828;SDS011;35723;51.194;5.112;2023-06-04T03:34:24;8.60;;;3.00;;
49828;SDS011;35723;51.194;5.112;2023-06-04T03:36:53;9.02;;;2.92;;
49828;SDS011;35723;51.194;5.112;2023-06-04T03:39:20;6.18;;;2.95;;
49828;SDS011;35723;51.194;5.112;2023-06-04T03:41:46;8.13;;;2.90;;
49828;SDS011;35723;51.194;5.112;2023-06-04T03:44:12;8.88;;;2.90;;
49828;SDS011;35723;51.194;5.112;2023-06-04T03:46:39;6.55;;;2.85;;
49828;SDS011;35723;51.194;5.112;2023-06-04T03:49:05;10.20;;;2.88;;
49828;SDS011;35723;51.194;5.112;2023-06-04T03:51:31;7.88;;;2.95;;
49828;SDS011;35723;51.194;5.112;2023-06-04T03:53:58;9.00;;;3.20;;
49828;SDS011;35723;51.194;5.112;2023-06-04T03:56:24;7.05;;;2.70;;
49828;SDS011;35723;51.194;5.112;2023-06-04T03:58:52;8.30;;;3.20;;
49828;SDS011;35723;51.194;5.112;2023-06-04T04:01:18;11.02;;;2.83;;
49828;SDS011;35723;51.194;5.112;2023-06-04T04:03:43;7.65;;;3.03;;
49828;SDS011;35723;51.194;5.112;2023-06-04T04:06:14;10.25;;;3.10;;
49828;SDS011;35723;51.194;5.112;2023-06-04T04:08:40;8.90;;;2.83;;
49828;SDS011;35723;51.194;5.112;2023-06-04T04:11:08;6.65;;;2.70;;
49828;SDS011;35723;51.194;5.112;2023-06-04T04:13:38;8.73;;;3.20;;
49828;SDS011;35723;51.194;5.112;2023-06-04T04:16:03;9.00;;;3.00;;
49828;SDS011;35723;51.194;5.112;2023-06-04T04:18:32;7.10;;;2.80;;
49828;SDS011;35723;51.194;5.112;2023-06-04T04:20:58;8.25;;;3.10;;
49828;SDS011;35723;51.194;5.112;2023-06-04T04:23:24;12.88;;;3.03;;
49828;SDS011;35723;51.194;5.112;2023-06-04T04:25:50;9.13;;;3.03;;
49828;SDS011;35723;51.194;5.112;2023-06-04T04:28:16;14.23;;;3.30;;
49828;SDS011;35723;51.194;5.112;2023-06-04T04:30:42;9.88;;;2.88;;
49828;SDS011;35723;51.194;5.112;2023-06-04T04:33:09;11.55;;;3.05;;
49828;SDS011;35723;51.194;5.112;2023-06-04T04:35:35;9.63;;;3.17;;
49828;SDS011;35723;51.194;5.112;2023-06-04T04:38:01;6.78;;;2.90;;
49828;SDS011;35723;51.194;5.112;2023-06-04T04:40:30;6.47;;;2.90;;
49828;SDS011;35723;51.194;5.112;2023-06-04T04:42:57;8.55;;;3.63;;
49828;SDS011;35723;51.194;5.112;2023-06-04T04:45:23;10.15;;;3.20;;
49828;SDS011;35723;51.194;5.112;2023-06-04T04:47:49;8.55;;;3.00;;
49828;SDS011;35723;51.194;5.112;2023-06-04T04:50:16;11.38;;;3.20;;
49828;SDS011;35723;51.194;5.112;2023-06-04T04:52:42;7.85;;;3.28;;
49828;SDS011;35723;51.194;5.112;2023-06-04T04:55:08;10.68;;;3.25;;
49828;SDS011;35723;51.194;5.112;2023-06-04T04:57:34;11.50;;;3.25;;
49828;SDS011;35723;51.194;5.112;2023-06-04T04:59:59;11.70;;;3.20;;
49828;SDS011;35723;51.194;5.112;2023-06-04T05:02:25;9.38;;;3.15;;
49828;SDS011;35723;51.194;5.112;2023-06-04T05:04:51;11.18;;;3.30;;
49828;SDS011;35723;51.194;5.112;2023-06-04T05:07:17;8.85;;;3.22;;
49828;SDS011;35723;51.194;5.112;2023-06-04T05:09:44;9.55;;;3.25;;
49828;SDS011;35723;51.194;5.112;2023-06-04T05:12:10;9.75;;;3.30;;
49828;SDS011;35723;51.194;5.112;2023-06-04T05:14:36;9.52;;;3.17;;
49828;SDS011;35723;51.194;5.112;2023-06-04T05:17:01;13.50;;;3.20;;
49828;SDS011;35723;51.194;5.112;2023-06-04T05:19:31;9.80;;;3.00;;
49828;SDS011;35723;51.194;5.112;2023-06-04T05:21:58;8.80;;;3.00;;
49828;SDS011;35723;51.194;5.112;2023-06-04T05:24:25;6.20;;;3.00;;
49828;SDS011;35723;51.194;5.112;2023-06-04T05:26:51;8.25;;;3.05;;
49828;SDS011;35723;51.194;5.112;2023-06-04T05:29:16;8.75;;;3.03;;
49828;SDS011;35723;51.194;5.112;2023-06-04T05:31:42;7.57;;;3.30;;
49828;SDS011;35723;51.194;5.112;2023-06-04T05:34:09;8.55;;;3.00;;
49828;SDS011;35723;51.194;5.112;2023-06-04T05:36:36;13.45;;;3.17;;
49828;SDS011;35723;51.194;5.112;2023-06-04T05:39:02;9.10;;;3.10;;
49828;SDS011;35723;51.194;5.112;2023-06-04T05:41:29;11.10;;;2.97;;
49828;SDS011;35723;51.194;5.112;2023-06-04T05:43:54;8.18;;;3.00;;
49828;SDS011;35723;51.194;5.112;2023-06-04T05:46:20;6.97;;;2.90;;
49828;SDS011;35723;51.194;5.112;2023-06-04T05:48:46;8.07;;;3.40;;
49828;SDS011;35723;51.194;5.112;2023-06-04T05:51:15;6.65;;;2.92;;
49828;SDS011;35723;51.194;5.112;2023-06-04T05:53:41;10.55;;;3.20;;
49828;SDS011;35723;51.194;5.112;2023-06-04T05:56:07;7.25;;;2.80;;
49828;SDS011;35723;51.194;5.112;2023-06-04T05:58:33;8.32;;;2.83;;
49828;SDS011;35723;51.194;5.112;2023-06-04T06:00:59;11.20;;;2.97;;
49828;SDS011;35723;51.194;5.112;2023-06-04T06:03:25;5.05;;;2.70;;
49828;SDS011;35723;51.194;5.112;2023-06-04T06:05:52;8.18;;;2.72;;
49828;SDS011;35723;51.194;5.112;2023-06-04T06:08:19;4.78;;;2.70;;
49828;SDS011;35723;51.194;5.112;2023-06-04T06:10:45;5.93;;;2.60;;
49828;SDS011;35723;51.194;5.112;2023-06-04T06:13:11;6.25;;;2.78;;
49828;SDS011;35723;51.194;5.112;2023-06-04T06:15:37;6.80;;;2.80;;
49828;SDS011;35723;51.194;5.112;2023-06-04T06:18:03;6.63;;;2.60;;
49828;SDS011;35723;51.194;5.112;2023-06-04T06:20:29;5.75;;;2.67;;
49828;SDS011;35723;51.194;5.112;2023-06-04T06:22:55;5.93;;;2.53;;
49828;SDS011;35723;51.194;5.112;2023-06-04T06:25:21;7.57;;;2.75;;
49828;SDS011;35723;51.194;5.112;2023-06-04T06:27:47;7.20;;;2.53;;
49828;SDS011;35723;51.194;5.112;2023-06-04T06:30:13;6.65;;;2.50;;
49828;SDS011;35723;51.194;5.112;2023-06-04T06:32:39;6.13;;;2.28;;
49828;SDS011;35723;51.194;5.112;2023-06-04T06:35:05;6.90;;;2.30;;
49828;SDS011;35723;51.194;5.112;2023-06-04T06:37:32;8.88;;;2.53;;
49828;SDS011;35723;51.194;5.112;2023-06-04T06:39:58;4.55;;;2.38;;
49828;SDS011;35723;51.194;5.112;2023-06-04T06:42:24;6.70;;;2.28;;
49828;SDS011;35723;51.194;5.112;2023-06-04T06:44:50;7.13;;;2.30;;
49828;SDS011;35723;51.194;5.112;2023-06-04T06:47:15;4.68;;;2.40;;
49828;SDS011;35723;51.194;5.112;2023-06-04T06:49:41;7.65;;;2.58;;
49828;SDS011;35723;51.194;5.112;2023-06-04T06:52:07;6.80;;;2.55;;
49828;SDS011;35723;51.194;5.112;2023-06-04T06:54:33;6.85;;;2.35;;
49828;SDS011;35723;51.194;5.112;2023-06-04T06:56:58;8.30;;;2.40;;
49828;SDS011;35723;51.194;5.112;2023-06-04T06:59:24;8.23;;;2.35;;
49828;SDS011;35723;51.194;5.112;2023-06-04T07:01:50;5.47;;;2.17;;
49828;SDS011;35723;51.194;5.112;2023-06-04T07:04:16;6.60;;;2.13;;
49828;SDS011;35723;51.194;5.112;2023-06-04T07:06:42;4.13;;;2.00;;
49828;SDS011;35723;51.194;5.112;2023-06-04T07:09:08;5.32;;;2.13;;
49828;SDS011;35723;51.194;5.112;2023-06-04T07:11:34;6.32;;;2.20;;
49828;SDS011;35723;51.194;5.112;2023-06-04T07:14:00;6.03;;;2.40;;
49828;SDS011;35723;51.194;5.112;2023-06-04T07:16:29;6.80;;;2.30;;
49828;SDS011;35723;51.194;5.112;2023-06-04T07:18:55;6.82;;;2.35;;
49828;SDS011;35723;51.194;5.112;2023-06-04T07:21:20;6.25;;;2.15;;
49828;SDS011;35723;51.194;5.112;2023-06-04T07:23:48;4.45;;;2.08;;
49828;SDS011;35723;51.194;5.112;2023-06-04T07:26:16;7.53;;;2.10;;
49828;SDS011;35723;51.194;5.112;2023-06-04T07:28:43;6.43;;;2.20;;
49828;SDS011;35723;51.194;5.112;2023-06-04T07:31:09;5.47;;;2.22;;
49828;SDS011;35723;51.194;5.112;2023-06-04T07:33:34;5.35;;;2.17;;
49828;SDS011;35723;51.194;5.112;2023-06-04T07:38:34;4.68;;;2.15;;
49828;SDS011;35723;51.194;5.112;2023-06-04T07:41:00;6.63;;;2.13;;
49828;SDS011;35723;51.194;5.112;2023-06-04T07:43:25;7.75;;;2.33;;
49828;SDS011;35723;51.194;5.112;2023-06-04T07:45:51;9.52;;;2.00;;
49828;SDS011;35723;51.194;5.112;2023-06-04T07:48:16;6.30;;;1.98;;
49828;SDS011;35723;51.194;5.112;2023-06-04T07:50:42;3.95;;;2.10;;
49828;SDS011;35723;51.194;5.112;2023-06-04T07:53:08;7.38;;;2.20;;
49828;SDS011;35723;51.194;5.112;2023-06-04T07:55:33;5.88;;;2.33;;
49828;SDS011;35723;51.194;5.112;2023-06-04T07:58:00;5.80;;;2.03;;
49828;SDS011;35723;51.194;5.112;2023-06-04T08:00:25;6.60;;;2.20;;
49828;SDS011;35723;51.194;5.112;2023-06-04T08:02:51;9.20;;;2.20;;
49828;SDS011;35723;51.194;5.112;2023-06-04T08:05:17;8.68;;;2.20;;
49828;SDS011;35723;51.194;5.112;2023-06-04T08:07:43;7.20;;;1.92;;
49828;SDS011;35723;51.194;5.112;2023-06-04T08:10:09;6.32;;;2.10;;
49828;SDS011;35723;51.194;5.112;2023-06-04T08:12:35;4.75;;;1.90;;
49828;SDS011;35723;51.194;5.112;2023-06-04T08:15:01;5.40;;;1.80;;
49828;SDS011;35723;51.194;5.112;2023-06-04T08:17:27;8.27;;;2.08;;
49828;SDS011;35723;51.194;5.112;2023-06-04T08:19:52;3.97;;;1.92;;
49828;SDS011;35723;51.194;5.112;2023-06-04T08:22:18;8.90;;;1.85;;
49828;SDS011;35723;51.194;5.112;2023-06-04T08:24:44;7.35;;;2.00;;
49828;SDS011;35723;51.194;5.112;2023-06-04T08:27:10;10.70;;;1.90;;
49828;SDS011;35723;51.194;5.112;2023-06-04T08:29:36;5.47;;;1.75;;
49828;SDS011;35723;51.194;5.112;2023-06-04T08:32:02;6.63;;;1.70;;
49828;SDS011;35723;51.194;5.112;2023-06-04T08:34:28;12.50;;;2.15;;
49828;SDS011;35723;51.194;5.112;2023-06-04T08:36:55;4.03;;;1.80;;
49828;SDS011;35723;51.194;5.112;2023-06-04T08:39:21;3.53;;;1.60;;
49828;SDS011;35723;51.194;5.112;2023-06-04T08:41:51;6.47;;;1.65;;
49828;SDS011;35723;51.194;5.112;2023-06-04T08:44:19;4.10;;;1.80;;
49828;SDS011;35723;51.194;5.112;2023-06-04T08:46:45;11.07;;;1.95;;
49828;SDS011;35723;51.194;5.112;2023-06-04T08:49:16;4.35;;;1.67;;
49828;SDS011;35723;51.194;5.112;2023-06-04T08:51:43;6.32;;;1.80;;
49828;SDS011;35723;51.194;5.112;2023-06-04T08:54:08;5.30;;;1.80;;
49828;SDS011;35723;51.194;5.112;2023-06-04T08:56:35;8.10;;;2.13;;
49828;SDS011;35723;51.194;5.112;2023-06-04T08:59:02;5.18;;;2.00;;
49828;SDS011;35723;51.194;5.112;2023-06-04T09:01:30;4.72;;;1.65;;
49828;SDS011;35723;51.194;5.112;2023-06-04T09:03:58;5.00;;;1.83;;
49828;SDS011;35723;51.194;5.112;2023-06-04T09:06:27;8.23;;;1.80;;
49828;SDS011;35723;51.194;5.112;2023-06-04T09:08:56;5.70;;;1.92;;
49828;SDS011;35723;51.194;5.112;2023-06-04T09:11:31;5.30;;;1.65;;
49828;SDS011;35723;51.194;5.112;2023-06-04T09:14:01;4.97;;;2.00;;
49828;SDS011;35723;51.194;5.112;2023-06-04T09:16:32;7.80;;;1.90;;
49828;SDS011;35723;51.194;5.112;2023-06-04T09:19:06;3.40;;;1.73;;
49828;SDS011;35723;51.194;5.112;2023-06-04T09:21:32;5.88;;;1.85;;
49828;SDS011;35723;51.194;5.112;2023-06-04T09:23:58;6.88;;;1.75;;
49828;SDS011;35723;51.194;5.112;2023-06-04T09:26:24;8.85;;;1.95;;
49828;SDS011;35723;51.194;5.112;2023-06-04T09:28:50;6.80;;;1.90;;
49828;SDS011;35723;51.194;5.112;2023-06-04T09:31:18;5.63;;;1.70;;
49828;SDS011;35723;51.194;5.112;2023-06-04T09:33:49;4.82;;;1.90;;
49828;SDS011;35723;51.194;5.112;2023-06-04T09:36:16;9.30;;;2.00;;
49828;SDS011;35723;51.194;5.112;2023-06-04T09:38:42;7.18;;;2.00;;
49828;SDS011;35723;51.194;5.112;2023-06-04T09:41:15;6.57;;;1.80;;
49828;SDS011;35723;51.194;5.112;2023-06-04T09:43:42;5.20;;;2.13;;
49828;SDS011;35723;51.194;5.112;2023-06-04T09:46:17;8.07;;;1.92;;
49828;SDS011;35723;51.194;5.112;2023-06-04T09:48:44;3.92;;;1.88;;
49828;SDS011;35723;51.194;5.112;2023-06-04T09:51:11;5.57;;;1.60;;
49828;SDS011;35723;51.194;5.112;2023-06-04T09:53:37;3.83;;;1.70;;
49828;SDS011;35723;51.194;5.112;2023-06-04T09:56:04;5.78;;;1.70;;
49828;SDS011;35723;51.194;5.112;2023-06-04T09:58:36;5.68;;;1.90;;
49828;SDS011;35723;51.194;5.112;2023-06-04T10:01:04;5.28;;;1.63;;
49828;SDS011;35723;51.194;5.112;2023-06-04T10:03:34;6.10;;;1.92;;
49828;SDS011;35723;51.194;5.112;2023-06-04T10:06:02;10.57;;;2.00;;
49828;SDS011;35723;51.194;5.112;2023-06-04T10:08:30;3.38;;;1.50;;
49828;SDS011;35723;51.194;5.112;2023-06-04T10:10:58;12.20;;;1.95;;
49828;SDS011;35723;51.194;5.112;2023-06-04T10:13:29;5.68;;;1.80;;
49828;SDS011;35723;51.194;5.112;2023-06-04T10:15:57;7.50;;;2.00;;
49828;SDS011;35723;51.194;5.112;2023-06-04T10:18:23;8.52;;;1.80;;
49828;SDS011;35723;51.194;5.112;2023-06-04T10:20:52;8.95;;;2.08;;
49828;SDS011;35723;51.194;5.112;2023-06-04T10:23:19;8.68;;;1.85;;
49828;SDS011;35723;51.194;5.112;2023-06-04T10:25:48;9.77;;;1.92;;
49828;SDS011;35723;51.194;5.112;2023-06-04T10:28:15;11.52;;;2.00;;
49828;SDS011;35723;51.194;5.112;2023-06-04T10:30:43;6.95;;;1.80;;
49828;SDS011;35723;51.194;5.112;2023-06-04T10:33:08;6.15;;;1.80;;
49828;SDS011;35723;51.194;5.112;2023-06-04T10:35:34;5.55;;;1.70;;
49828;SDS011;35723;51.194;5.112;2023-06-04T10:38:08;7.13;;;1.80;;
49828;SDS011;35723;51.194;5.112;2023-06-04T10:40:35;6.43;;;1.83;;
49828;SDS011;35723;51.194;5.112;2023-06-04T10:43:09;4.30;;;1.45;;
49828;SDS011;35723;51.194;5.112;2023-06-04T10:45:38;6.65;;;1.92;;
49828;SDS011;35723;51.194;5.112;2023-06-04T10:48:06;3.72;;;1.58;;
49828;SDS011;35723;51.194;5.112;2023-06-04T10:50:32;4.55;;;1.55;;
49828;SDS011;35723;51.194;5.112;2023-06-04T10:52:59;5.30;;;1.58;;
49828;SDS011;35723;51.194;5.112;2023-06-04T10:55:29;2.95;;;1.60;;
49828;SDS011;35723;51.194;5.112;2023-06-04T10:57:59;2.42;;;1.42;;
49828;SDS011;35723;51.194;5.112;2023-06-04T11:00:35;6.45;;;1.77;;
49828;SDS011;35723;51.194;5.112;2023-06-04T11:03:12;5.28;;;1.70;;
49828;SDS011;35723;51.194;5.112;2023-06-04T11:05:42;3.97;;;1.63;;
49828;SDS011;35723;51.194;5.112;2023-06-04T11:08:10;5.30;;;1.63;;
49828;SDS011;35723;51.194;5.112;2023-06-04T11:10:39;7.68;;;1.67;;
49828;SDS011;35723;51.194;5.112;2023-06-04T11:13:06;5.50;;;1.60;;
49828;SDS011;35723;51.194;5.112;2023-06-04T11:15:42;5.40;;;1.70;;
49828;SDS011;35723;51.194;5.112;2023-06-04T11:18:16;9.25;;;1.70;;
49828;SDS011;35723;51.194;5.112;2023-06-04T11:20:44;3.58;;;1.70;;
49828;SDS011;35723;51.194;5.112;2023-06-04T11:23:11;4.13;;;1.70;;
49828;SDS011;35723;51.194;5.112;2023-06-04T11:25:40;7.75;;;1.90;;
49828;SDS011;35723;51.194;5.112;2023-06-04T11:28:14;5.88;;;1.73;;
49828;SDS011;35723;51.194;5.112;2023-06-04T11:30:42;4.50;;;1.52;;
49828;SDS011;35723;51.194;5.112;2023-06-04T11:33:07;6.30;;;1.70;;
49828;SDS011;35723;51.194;5.112;2023-06-04T11:35:40;6.25;;;1.60;;
49828;SDS011;35723;51.194;5.112;2023-06-04T11:38:06;7.32;;;1.83;;
49828;SDS011;35723;51.194;5.112;2023-06-04T11:40:33;3.05;;;1.55;;
49828;SDS011;35723;51.194;5.112;2023-06-04T11:42:59;3.58;;;1.58;;
49828;SDS011;35723;51.194;5.112;2023-06-04T11:45:26;6.47;;;1.60;;
49828;SDS011;35723;51.194;5.112;2023-06-04T11:47:55;3.58;;;1.60;;
49828;SDS011;35723;51.194;5.112;2023-06-04T11:50:22;6.97;;;1.67;;
49828;SDS011;35723;51.194;5.112;2023-06-04T11:52:49;3.67;;;1.70;;
49828;SDS011;35723;51.194;5.112;2023-06-04T11:55:15;5.57;;;1.85;;
49828;SDS011;35723;51.194;5.112;2023-06-04T11:57:47;4.32;;;1.65;;
49828;SDS011;35723;51.194;5.112;2023-06-04T12:00:14;4.80;;;1.52;;
49828;SDS011;35723;51.194;5.112;2023-06-04T12:02:56;4.78;;;1.70;;
49828;SDS011;35723;51.194;5.112;2023-06-04T12:05:23;3.70;;;1.50;;
49828;SDS011;35723;51.194;5.112;2023-06-04T12:08:08;4.55;;;1.50;;
49828;SDS011;35723;51.194;5.112;2023-06-04T12:13:04;3.35;;;1.60;;
49828;SDS011;35723;51.194;5.112;2023-06-04T12:15:30;4.60;;;1.40;;
49828;SDS011;35723;51.194;5.112;2023-06-04T12:17:55;3.70;;;1.50;;
49828;SDS011;35723;51.194;5.112;2023-06-04T12:20:34;5.40;;;1.70;;
49828;SDS011;35723;51.194;5.112;2023-06-04T12:23:01;3.97;;;1.40;;
49828;SDS011;35723;51.194;5.112;2023-06-04T12:25:31;6.30;;;1.48;;
49828;SDS011;35723;51.194;5.112;2023-06-04T12:27:58;6.80;;;1.88;;
49828;SDS011;35723;51.194;5.112;2023-06-04T12:30:34;7.95;;;1.75;;
49828;SDS011;35723;51.194;5.112;2023-06-04T12:33:03;3.03;;;1.52;;
49828;SDS011;35723;51.194;5.112;2023-06-04T12:35:29;7.80;;;1.70;;
49828;SDS011;35723;51.194;5.112;2023-06-04T12:37:55;6.07;;;1.75;;
49828;SDS011;35723;51.194;5.112;2023-06-04T12:40:21;5.85;;;1.67;;
49828;SDS011;35723;51.194;5.112;2023-06-04T12:42:49;3.53;;;1.83;;
49828;SDS011;35723;51.194;5.112;2023-06-04T12:45:15;4.88;;;1.60;;
49828;SDS011;35723;51.194;5.112;2023-06-04T12:47:41;3.20;;;1.50;;
49828;SDS011;35723;51.194;5.112;2023-06-04T12:50:07;4.80;;;1.65;;
49828;SDS011;35723;51.194;5.112;2023-06-04T12:52:33;3.45;;;1.42;;
49828;SDS011;35723;51.194;5.112;2023-06-04T12:54:59;6.28;;;1.63;;
49828;SDS011;35723;51.194;5.112;2023-06-04T12:57:24;5.75;;;1.90;;
49828;SDS011;35723;51.194;5.112;2023-06-04T12:59:50;3.50;;;1.83;;
49828;SDS011;35723;51.194;5.112;2023-06-04T13:02:16;3.40;;;1.70;;
49828;SDS011;35723;51.194;5.112;2023-06-04T13:04:41;6.93;;;2.03;;
49828;SDS011;35723;51.194;5.112;2023-06-04T13:07:09;4.40;;;1.52;;
49828;SDS011;35723;51.194;5.112;2023-06-04T13:09:35;3.67;;;1.60;;
49828;SDS011;35723;51.194;5.112;2023-06-04T13:12:00;6.13;;;1.42;;
49828;SDS011;35723;51.194;5.112;2023-06-04T13:14:26;4.68;;;1.60;;
49828;SDS011;35723;51.194;5.112;2023-06-04T13:16:52;7.45;;;1.88;;
49828;SDS011;35723;51.194;5.112;2023-06-04T13:19:18;4.15;;;1.60;;
49828;SDS011;35723;51.194;5.112;2023-06-04T13:21:45;8.32;;;1.75;;
49828;SDS011;35723;51.194;5.112;2023-06-04T13:24:11;9.65;;;2.50;;
49828;SDS011;35723;51.194;5.112;2023-06-04T13:26:37;8.45;;;2.25;;
49828;SDS011;35723;51.194;5.112;2023-06-04T13:29:03;3.95;;;1.70;;
49828;SDS011;35723;51.194;5.112;2023-06-04T13:31:29;5.10;;;1.88;;
49828;SDS011;35723;51.194;5.112;2023-06-04T13:33:55;4.50;;;1.88;;
49828;SDS011;35723;51.194;5.112;2023-06-04T13:36:20;6.75;;;1.80;;
49828;SDS011;35723;51.194;5.112;2023-06-04T13:38:46;4.80;;;1.98;;
49828;SDS011;35723;51.194;5.112;2023-06-04T13:41:12;4.50;;;1.70;;
49828;SDS011;35723;51.194;5.112;2023-06-04T13:43:37;2.75;;;1.50;;
49828;SDS011;35723;51.194;5.112;2023-06-04T13:46:03;4.80;;;1.52;;
49828;SDS011;35723;51.194;5.112;2023-06-04T13:48:30;5.47;;;1.73;;
49828;SDS011;35723;51.194;5.112;2023-06-04T13:50:55;3.47;;;1.58;;
49828;SDS011;35723;51.194;5.112;2023-06-04T13:53:21;5.60;;;1.83;;
49828;SDS011;35723;51.194;5.112;2023-06-04T13:55:47;6.32;;;1.88;;
49828;SDS011;35723;51.194;5.112;2023-06-04T13:58:12;4.45;;;2.00;;
49828;SDS011;35723;51.194;5.112;2023-06-04T14:00:40;8.80;;;2.13;;
49828;SDS011;35723;51.194;5.112;2023-06-04T14:03:05;5.82;;;2.00;;
49828;SDS011;35723;51.194;5.112;2023-06-04T14:05:31;6.25;;;1.90;;
49828;SDS011;35723;51.194;5.112;2023-06-04T14:07:57;4.75;;;2.00;;
49828;SDS011;35723;51.194;5.112;2023-06-04T14:10:23;7.00;;;1.80;;
49828;SDS011;35723;51.194;5.112;2023-06-04T14:12:48;7.38;;;2.40;;
49828;SDS011;35723;51.194;5.112;2023-06-04T14:15:15;4.03;;;2.10;;
49828;SDS011;35723;51.194;5.112;2023-06-04T14:17:40;5.78;;;2.00;;
49828;SDS011;35723;51.194;5.112;2023-06-04T14:20:06;6.63;;;1.90;;
49828;SDS011;35723;51.194;5.112;2023-06-04T14:22:36;6.10;;;1.98;;
49828;SDS011;35723;51.194;5.112;2023-06-04T14:25:06;3.42;;;1.63;;
49828;SDS011;35723;51.194;5.112;2023-06-04T14:27:33;7.95;;;1.92;;
49828;SDS011;35723;51.194;5.112;2023-06-04T14:30:01;6.53;;;1.80;;
49828;SDS011;35723;51.194;5.112;2023-06-04T14:32:27;4.07;;;1.90;;
49828;SDS011;35723;51.194;5.112;2023-06-04T14:34:53;5.07;;;2.00;;
49828;SDS011;35723;51.194;5.112;2023-06-04T14:37:20;3.90;;;1.90;;
49828;SDS011;35723;51.194;5.112;2023-06-04T14:39:46;10.20;;;2.40;;
49828;SDS011;35723;51.194;5.112;2023-06-04T14:42:12;6.60;;;2.00;;
49828;SDS011;35723;51.194;5.112;2023-06-04T14:44:38;5.40;;;1.90;;
49828;SDS011;35723;51.194;5.112;2023-06-04T14:47:04;3.85;;;1.80;;
49828;SDS011;35723;51.194;5.112;2023-06-04T14:49:30;6.13;;;2.08;;
49828;SDS011;35723;51.194;5.112;2023-06-04T14:51:56;11.07;;;2.40;;
49828;SDS011;35723;51.194;5.112;2023-06-04T14:54:21;7.95;;;1.77;;
49828;SDS011;35723;51.194;5.112;2023-06-04T14:56:47;7.20;;;1.90;;
49828;SDS011;35723;51.194;5.112;2023-06-04T14:59:12;5.53;;;2.10;;